Time;durP1;ratioP1;P1;durP2;ratioP2;P2;SDS_P1;SDS_P2;PMS_P1;PMS_P2;Temp;Humidity;BMP_temperature;BMP_pressure;BME280_temperature;BME280_humidity;BME280_pressure;Samples;Min_cycle;Max_cycle;Signal;HPM_P1;HPM_P2
2022/06/21 00:00:30;;;;;;;47.40;30.35;;;;;;;;;;1668313;29;22370;-63
2022/06/21 00:01:23;;;;;;;46.08;30.38;;;;;;;;;;1668266;29;21675;-63
2022/06/21 00:02:15;;;;;;;49.35;30.00;;;;;;;;;;1668255;29;22194;-63
2022/06/21 00:03:12;;;;;;;50.97;30.02;;;;;;;;;;1669672;29;22277;-63
2022/06/21 00:04:03;;;;;;;42.00;29.33;;;;;;;;;;1673046;29;21678;-63
2022/06/21 00:04:56;;;;;;;51.08;29.73;;;;;;;;;;1668010;29;21663;-64
2022/06/21 00:05:49;;;;;;;52.05;30.33;;;;;;;;;;1668600;29;22244;-63
2022/06/21 00:06:42;;;;;;;53.08;31.10;;;;;;;;;;1667651;29;21753;-64
2022/06/21 00:07:34;;;;;;;50.55;30.20;;;;;;;;;;1668274;29;22649;-64
2022/06/21 00:08:31;;;;;;;50.85;29.00;;;;;;;;;;1668152;29;21843;-63
2022/06/21 00:09:23;;;;;;;54.17;30.02;;;;;;;;;;1669201;29;22379;-64
2022/06/21 00:10:19;;;;;;;49.40;29.35;;;;;;;;;;1673676;29;22477;-63
2022/06/21 00:11:21;;;;;;;42.75;28.58;;;;;;;;;;1668283;29;22456;-64
2022/06/21 00:12:14;;;;;;;46.85;28.90;;;;;;;;;;1668190;29;22303;-63
2022/06/21 00:13:09;;;;;;;46.20;28.33;;;;;;;;;;1668233;29;21599;-63
2022/06/21 00:14:02;;;;;;;39.78;26.85;;;;;;;;;;1668213;29;21905;-63
2022/06/21 00:14:53;;;;;;;44.97;27.90;;;;;;;;;;1672964;29;22540;-63
2022/06/21 00:15:48;;;;;;;52.67;29.00;;;;;;;;;;1669771;29;22031;-64
2022/06/21 00:16:39;;;;;;;42.30;27.73;;;;;;;;;;1667809;29;21652;-63
2022/06/21 00:17:31;;;;;;;47.03;27.75;;;;;;;;;;1672402;29;21645;-64
2022/06/21 00:18:24;;;;;;;46.10;27.38;;;;;;;;;;1670906;29;21628;-63
2022/06/21 00:19:21;;;;;;;41.05;26.88;;;;;;;;;;1668700;29;21578;-63
2022/06/21 00:20:18;;;;;;;44.13;27.27;;;;;;;;;;1669319;29;22306;-64
2022/06/21 00:21:15;;;;;;;45.20;27.40;;;;;;;;;;1658288;29;21621;-63
2022/06/21 00:22:11;;;;;;;41.90;28.13;;;;;;;;;;1659342;29;22107;-63
2022/06/21 00:23:05;;;;;;;43.03;26.98;;;;;;;;;;1666236;29;21633;-63
2022/06/21 00:23:56;;;;;;;50.28;27.88;;;;;;;;;;1662350;29;21636;-63
2022/06/21 00:24:49;;;;;;;45.08;26.45;;;;;;;;;;1662905;29;21642;-63
2022/06/21 00:25:41;;;;;;;43.53;27.17;;;;;;;;;;1667470;29;21648;-64
2022/06/21 00:26:33;;;;;;;42.47;27.92;;;;;;;;;;1671580;29;21643;-63
2022/06/21 00:27:25;;;;;;;41.47;26.42;;;;;;;;;;1669553;29;21638;-64
2022/06/21 00:28:19;;;;;;;44.78;26.85;;;;;;;;;;1669283;29;21739;-64
2022/06/21 00:29:10;;;;;;;41.05;26.08;;;;;;;;;;1669032;29;21684;-63
2022/06/21 00:30:04;;;;;;;43.53;26.40;;;;;;;;;;1670958;29;22439;-64
2022/06/21 00:30:55;;;;;;;35.67;25.45;;;;;;;;;;1669193;29;21839;-63
2022/06/21 00:31:50;;;;;;;44.15;26.63;;;;;;;;;;1668740;29;22434;-63
2022/06/21 00:32:41;;;;;;;46.33;25.30;;;;;;;;;;1668811;29;21611;-63
2022/06/21 00:33:34;;;;;;;41.50;26.13;;;;;;;;;;1673943;29;21704;-63
2022/06/21 00:34:25;;;;;;;39.58;24.02;;;;;;;;;;1671617;29;21646;-63
2022/06/21 00:35:21;;;;;;;44.97;25.83;;;;;;;;;;1669330;29;21669;-63
2022/06/21 00:36:23;;;;;;;42.92;26.02;;;;;;;;;;1674361;29;21881;-64
2022/06/21 00:37:18;;;;;;;34.72;23.60;;;;;;;;;;1670359;29;21593;-63
2022/06/21 00:38:12;;;;;;;44.40;25.42;;;;;;;;;;1668926;29;22288;-63
2022/06/21 00:39:06;;;;;;;43.53;24.95;;;;;;;;;;1669038;29;22078;-63
2022/06/21 00:39:57;;;;;;;34.28;25.42;;;;;;;;;;1669004;29;21573;-63
2022/06/21 00:40:50;;;;;;;36.78;25.17;;;;;;;;;;1668869;29;22018;-63
2022/06/21 00:41:44;;;;;;;34.72;23.33;;;;;;;;;;1669860;29;21614;-64
2022/06/21 00:42:39;;;;;;;42.72;24.17;;;;;;;;;;1669148;29;21674;-63
2022/06/21 00:43:35;;;;;;;41.25;24.80;;;;;;;;;;1669004;29;21662;-64
2022/06/21 00:44:34;;;;;;;37.50;24.42;;;;;;;;;;1664239;29;21815;-64
2022/06/21 00:45:32;;;;;;;41.47;23.83;;;;;;;;;;1667436;29;22742;-63
2022/06/21 00:46:36;;;;;;;34.88;23.00;;;;;;;;;;1670746;29;21909;-64
2022/06/21 00:47:33;;;;;;;33.22;22.48;;;;;;;;;;1669341;29;21761;-63
2022/06/21 00:48:33;;;;;;;41.75;24.27;;;;;;;;;;1669321;29;22939;-63
2022/06/21 00:49:29;;;;;;;37.17;24.23;;;;;;;;;;1668984;29;21672;-64
2022/06/21 00:50:28;;;;;;;40.72;24.08;;;;;;;;;;1669157;29;21729;-65
2022/06/21 00:51:26;;;;;;;37.00;23.30;;;;;;;;;;1668746;29;21882;-63
2022/06/21 00:52:23;;;;;;;38.35;23.70;;;;;;;;;;1669207;29;21748;-63
2022/06/21 00:53:22;;;;;;;40.13;23.10;;;;;;;;;;1669233;29;21627;-63
2022/06/21 00:54:20;;;;;;;38.85;23.15;;;;;;;;;;1669030;29;21859;-63
2022/06/21 00:55:18;;;;;;;38.78;23.02;;;;;;;;;;1669220;29;21601;-63
2022/06/21 00:56:16;;;;;;;39.28;22.50;;;;;;;;;;1664207;29;21763;-64
2022/06/21 00:57:16;;;;;;;39.70;24.75;;;;;;;;;;1666292;29;21777;-64
2022/06/21 00:58:12;;;;;;;49.22;24.38;;;;;;;;;;1668752;29;21621;-64
2022/06/21 00:59:21;;;;;;;44.70;24.30;;;;;;;;;;1668720;29;21679;-64
2022/06/21 01:00:31;;;;;;;40.80;25.10;;;;;;;;;;1667274;29;21624;-64
2022/06/21 01:01:24;;;;;;;;;;;;;;;;;;1669616;29;21642;-63
2022/06/21 01:02:20;;;;;;;40.03;23.92;;;;;;;;;;1668959;29;21948;-64
2022/06/21 01:03:17;;;;;;;44.85;23.25;;;;;;;;;;1668568;29;21688;-63
2022/06/21 01:04:28;;;;;;;41.28;23.38;;;;;;;;;;1671888;29;21585;-63
2022/06/21 01:05:21;;;;;;;39.80;22.35;;;;;;;;;;1672928;29;21655;-63
2022/06/21 01:06:16;;;;;;;41.28;23.08;;;;;;;;;;1664918;29;21639;-63
2022/06/21 01:07:10;;;;;;;37.10;22.50;;;;;;;;;;1667025;29;21646;-63
2022/06/21 01:08:03;;;;;;;45.28;26.35;;;;;;;;;;1673587;29;21563;-63
2022/06/21 01:09:01;;;;;;;45.90;28.02;;;;;;;;;;1676247;29;21600;-63
2022/06/21 01:09:59;;;;;;;49.10;28.90;;;;;;;;;;1675355;29;21600;-64
2022/06/21 01:10:56;;;;;;;56.58;31.50;;;;;;;;;;1671609;29;21579;-65
2022/06/21 01:11:54;;;;;;;53.72;32.22;;;;;;;;;;1665302;29;21794;-63
2022/06/21 01:12:52;;;;;;;53.22;31.80;;;;;;;;;;1670389;29;21599;-63
2022/06/21 01:13:48;;;;;;;53.67;30.88;;;;;;;;;;1666483;29;21828;-63
2022/06/21 01:14:47;;;;;;;48.83;30.33;;;;;;;;;;1665036;29;21653;-63
2022/06/21 01:15:43;;;;;;;50.72;31.17;;;;;;;;;;1674515;29;21551;-64
2022/06/21 01:16:36;;;;;;;46.25;31.13;;;;;;;;;;1672984;29;21587;-63
2022/06/21 01:17:30;;;;;;;56.85;32.60;;;;;;;;;;1675269;29;22385;-63
2022/06/21 01:18:24;;;;;;;65.88;32.15;;;;;;;;;;1674283;29;21614;-64
2022/06/21 01:19:35;;;;;;;57.15;33.08;;;;;;;;;;1672674;29;21617;-63
2022/06/21 01:20:31;;;;;;;52.97;31.40;;;;;;;;;;1671831;29;22712;-63
2022/06/21 01:21:24;;;;;;;51.65;32.15;;;;;;;;;;1669783;29;21713;-63
2022/06/21 01:22:32;;;;;;;54.10;31.08;;;;;;;;;;1669851;29;21732;-63
2022/06/21 01:23:41;;;;;;;51.00;31.65;;;;;;;;;;1671579;29;22659;-63
2022/06/21 01:24:42;;;;;;;50.97;30.45;;;;;;;;;;1672240;29;21604;-63
2022/06/21 01:25:42;;;;;;;;;;;;;;;;;;1676814;29;21588;-64
2022/06/21 01:26:49;;;;;;;50.85;31.17;;;;;;;;;;1673410;29;21479;-64
2022/06/21 01:27:40;;;;;;;53.22;31.50;;;;;;;;;;1670121;29;21676;-63
2022/06/21 01:28:33;;;;;;;52.40;31.35;;;;;;;;;;1669250;29;21685;-63
2022/06/21 01:29:28;;;;;;;55.33;32.25;;;;;;;;;;1664142;29;21616;-63
2022/06/21 01:30:22;;;;;;;57.58;30.98;;;;;;;;;;1661996;29;21650;-64
2022/06/21 01:31:13;;;;;;;53.92;31.17;;;;;;;;;;1674796;29;21732;-63
2022/06/21 01:32:07;;;;;;;53.75;30.85;;;;;;;;;;1668747;29;21746;-63
2022/06/21 01:32:59;;;;;;;64.30;33.35;;;;;;;;;;1673841;29;21704;-64
2022/06/21 01:33:51;;;;;;;60.00;33.60;;;;;;;;;;1668632;29;22468;-64
2022/06/21 01:34:42;;;;;;;64.10;33.03;;;;;;;;;;1671293;29;22737;-63
2022/06/21 01:35:40;;;;;;;56.80;32.05;;;;;;;;;;1670681;29;22259;-63
2022/06/21 01:36:34;;;;;;;55.83;32.15;;;;;;;;;;1670073;29;21686;-63
2022/06/21 01:37:29;;;;;;;59.65;32.10;;;;;;;;;;1668866;29;22455;-63
2022/06/21 01:38:25;;;;;;;61.53;35.13;;;;;;;;;;1661876;29;21686;-64
2022/06/21 01:39:25;;;;;;;58.55;31.40;;;;;;;;;;1664515;29;22252;-63
2022/06/21 01:40:25;;;;;;;58.65;32.30;;;;;;;;;;1673895;29;21667;-63
2022/06/21 01:41:21;;;;;;;58.30;32.60;;;;;;;;;;1671622;29;21706;-63
2022/06/21 01:42:20;;;;;;;61.22;32.40;;;;;;;;;;1668959;29;22356;-63
2022/06/21 01:43:16;;;;;;;55.25;32.10;;;;;;;;;;1669345;29;22681;-63
2022/06/21 01:44:12;;;;;;;53.58;31.40;;;;;;;;;;1671385;29;22455;-63
2022/06/21 01:45:10;;;;;;;55.55;32.00;;;;;;;;;;1669888;29;21964;-63
2022/06/21 01:46:04;;;;;;;62.03;32.08;;;;;;;;;;1669852;29;22080;-62
2022/06/21 01:46:57;;;;;;;55.60;31.45;;;;;;;;;;1666452;29;22776;-63
2022/06/21 01:47:53;;;;;;;53.30;31.25;;;;;;;;;;1670341;29;22514;-63
2022/06/21 01:48:49;;;;;;;54.20;28.75;;;;;;;;;;1663338;29;21899;-63
2022/06/21 01:49:47;;;;;;;44.80;29.17;;;;;;;;;;1663808;29;21666;-64
2022/06/21 01:50:42;;;;;;;48.30;29.25;;;;;;;;;;1675275;29;21572;-64
2022/06/21 01:51:40;;;;;;;46.65;29.02;;;;;;;;;;1671470;29;22081;-63
2022/06/21 01:52:37;;;;;;;43.22;28.60;;;;;;;;;;1670664;29;21645;-63
2022/06/21 01:53:28;;;;;;;49.22;27.92;;;;;;;;;;1673426;29;21931;-63
2022/06/21 01:54:24;;;;;;;47.97;28.80;;;;;;;;;;1669884;29;21551;-63
2022/06/21 01:55:23;;;;;;;47.83;27.58;;;;;;;;;;1671241;29;21628;-64
2022/06/21 01:56:21;;;;;;;47.15;27.98;;;;;;;;;;1671143;29;22611;-63
2022/06/21 01:57:15;;;;;;;47.05;28.30;;;;;;;;;;1669583;29;22046;-64
2022/06/21 01:58:13;;;;;;;45.97;29.67;;;;;;;;;;1670023;29;21988;-62
2022/06/21 01:59:09;;;;;;;50.28;28.13;;;;;;;;;;1668751;29;21700;-63
2022/06/21 02:00:05;;;;;;;54.25;28.58;;;;;;;;;;1669010;29;21612;-64
2022/06/21 02:01:01;;;;;;;52.90;27.50;;;;;;;;;;1671355;29;21846;-63
2022/06/21 02:02:01;;;;;;;52.35;28.92;;;;;;;;;;1667132;29;21958;-63
2022/06/21 02:02:57;;;;;;;46.28;26.73;;;;;;;;;;1664213;29;21910;-63
2022/06/21 02:03:54;;;;;;;56.50;27.88;;;;;;;;;;1674501;29;22216;-63
2022/06/21 02:04:53;;;;;;;44.70;26.05;;;;;;;;;;1669695;29;22603;-64
2022/06/21 02:05:49;;;;;;;50.00;28.23;;;;;;;;;;1670378;29;21575;-64
2022/06/21 02:06:44;;;;;;;44.80;26.27;;;;;;;;;;1668605;29;22575;-63
2022/06/21 02:07:42;;;;;;;42.25;26.15;;;;;;;;;;1662759;29;21755;-63
2022/06/21 02:08:39;;;;;;;48.35;25.95;;;;;;;;;;1662988;29;21624;-64
2022/06/21 02:09:39;;;;;;;42.95;25.60;;;;;;;;;;1668075;29;22410;-63
2022/06/21 02:10:36;;;;;;;48.28;26.38;;;;;;;;;;1669889;29;21654;-63
2022/06/21 02:11:36;;;;;;;42.05;26.23;;;;;;;;;;1670001;29;22300;-64
2022/06/21 02:12:29;;;;;;;;;;;;;;;;;;1672759;29;22466;-63
2022/06/21 02:13:27;;;;;;;44.53;25.05;;;;;;;;;;1671375;29;21470;-63
2022/06/21 02:14:29;;;;;;;38.70;24.10;;;;;;;;;;1670527;29;21786;-64
2022/06/21 02:15:30;;;;;;;45.10;24.75;;;;;;;;;;1671547;29;21552;-64
2022/06/21 02:16:22;;;;;;;41.83;24.10;;;;;;;;;;1668828;29;22060;-64
2022/06/21 02:17:20;;;;;;;40.10;22.95;;;;;;;;;;1671038;29;22083;-64
2022/06/21 02:18:14;;;;;;;35.13;23.17;;;;;;;;;;1661209;29;22234;-64
2022/06/21 02:19:06;;;;;;;32.30;22.27;;;;;;;;;;1661914;29;21632;-63
2022/06/21 02:20:05;;;;;;;35.03;23.30;;;;;;;;;;1666278;29;21874;-63
2022/06/21 02:21:02;;;;;;;37.00;22.45;;;;;;;;;;1670625;29;21613;-63
2022/06/21 02:21:54;;;;;;;39.95;22.88;;;;;;;;;;1668651;29;21627;-63
2022/06/21 02:22:47;;;;;;;37.20;22.45;;;;;;;;;;1673236;29;21605;-63
2022/06/21 02:23:40;;;;;;;29.70;20.95;;;;;;;;;;1671451;29;21589;-64
2022/06/21 02:24:32;;;;;;;41.45;21.90;;;;;;;;;;1664470;29;21668;-63
2022/06/21 02:25:25;;;;;;;37.20;21.90;;;;;;;;;;1658376;29;21597;-63
2022/06/21 02:26:17;;;;;;;42.10;22.00;;;;;;;;;;1660555;29;22679;-63
2022/06/21 02:27:11;;;;;;;33.10;20.88;;;;;;;;;;1662278;29;21647;-63
2022/06/21 02:28:08;;;;;;;40.90;21.25;;;;;;;;;;1662839;29;21657;-63
2022/06/21 02:29:00;;;;;;;36.75;21.30;;;;;;;;;;1664396;29;21621;-63
2022/06/21 02:29:54;;;;;;;32.78;19.98;;;;;;;;;;1662890;29;21605;-64
2022/06/21 02:30:47;;;;;;;30.80;19.65;;;;;;;;;;1664072;29;22668;-63
2022/06/21 02:31:40;;;;;;;37.10;20.50;;;;;;;;;;1668290;29;21919;-63
2022/06/21 02:32:35;;;;;;;29.58;19.52;;;;;;;;;;1671295;29;21904;-63
2022/06/21 02:33:33;;;;;;;32.90;19.40;;;;;;;;;;1668796;29;21607;-63
2022/06/21 02:34:32;;;;;;;31.88;19.40;;;;;;;;;;1672295;29;21591;-63
2022/06/21 02:35:31;;;;;;;28.27;19.98;;;;;;;;;;1671260;29;22199;-63
2022/06/21 02:36:30;;;;;;;31.33;18.48;;;;;;;;;;1666490;29;22003;-63
2022/06/21 02:37:24;;;;;;;28.48;20.02;;;;;;;;;;1660538;29;22363;-63
2022/06/21 02:38:19;;;;;;;28.15;17.95;;;;;;;;;;1666927;29;21685;-63
2022/06/21 02:39:18;;;;;;;29.60;19.08;;;;;;;;;;1667360;29;22492;-63
2022/06/21 02:40:19;;;;;;;26.85;17.73;;;;;;;;;;1664218;29;21896;-63
2022/06/21 02:41:19;;;;;;;30.40;18.63;;;;;;;;;;1665386;29;22682;-62
2022/06/21 02:42:20;;;;;;;26.02;17.88;;;;;;;;;;1673607;29;22463;-63
2022/06/21 02:43:21;;;;;;;25.73;17.65;;;;;;;;;;1670193;29;21943;-62
2022/06/21 02:44:18;;;;;;;25.25;17.55;;;;;;;;;;1674179;29;21854;-63
2022/06/21 02:45:26;;;;;;;24.27;16.38;;;;;;;;;;1668231;29;22436;-63
2022/06/21 02:46:20;;;;;;;23.17;16.67;;;;;;;;;;1670198;29;22687;-62
2022/06/21 02:47:16;;;;;;;27.75;17.55;;;;;;;;;;1666807;29;21743;-63
2022/06/21 02:48:14;;;;;;;24.60;16.85;;;;;;;;;;1668048;29;21647;-63
2022/06/21 02:49:13;;;;;;;22.55;16.48;;;;;;;;;;1669980;29;22117;-63
2022/06/21 02:50:24;;;;;;;20.63;14.85;;;;;;;;;;1670618;29;21627;-64
2022/06/21 02:51:22;;;;;;;19.05;14.63;;;;;;;;;;1669713;29;21631;-63
2022/06/21 02:52:21;;;;;;;21.60;15.73;;;;;;;;;;1670874;29;22666;-62
2022/06/21 02:53:19;;;;;;;20.63;15.48;;;;;;;;;;1663251;29;21956;-63
2022/06/21 02:54:15;;;;;;;20.63;14.65;;;;;;;;;;1673836;29;21671;-63
2022/06/21 02:55:32;;;;;;;23.48;16.13;;;;;;;;;;1664649;29;21601;-63
2022/06/21 02:56:28;;;;;;;25.10;15.18;;;;;;;;;;1663176;29;22345;-63
2022/06/21 02:57:26;;;;;;;21.40;14.93;;;;;;;;;;1670583;29;21745;-63
2022/06/21 02:58:26;;;;;;;20.25;14.80;;;;;;;;;;1670682;29;21716;-62
2022/06/21 02:59:18;;;;;;;17.17;14.35;;;;;;;;;;1669646;29;21660;-63
2022/06/21 03:00:20;;;;;;;20.98;14.13;;;;;;;;;;1669807;29;21600;-62
2022/06/21 03:01:18;;;;;;;19.45;13.70;;;;;;;;;;1671070;29;22174;-63
2022/06/21 03:02:14;;;;;;;20.95;14.32;;;;;;;;;;1677226;29;22398;-63
2022/06/21 03:03:08;;;;;;;18.23;14.40;;;;;;;;;;1670924;29;21591;-62
2022/06/21 03:04:00;;;;;;;20.02;14.32;;;;;;;;;;1668702;29;21584;-64
2022/06/21 03:04:57;;;;;;;19.38;14.23;;;;;;;;;;1668810;29;21594;-62
2022/06/21 03:05:56;;;;;;;14.93;13.05;;;;;;;;;;1662877;29;21661;-63
2022/06/21 03:06:48;;;;;;;16.20;13.80;;;;;;;;;;1663281;29;22598;-63
2022/06/21 03:07:45;;;;;;;15.48;13.02;;;;;;;;;;1667416;29;21590;-63
2022/06/21 03:08:46;;;;;;;19.77;13.38;;;;;;;;;;1667778;29;21788;-63
2022/06/21 03:09:38;;;;;;;20.42;12.93;;;;;;;;;;1665498;29;21651;-63
2022/06/21 03:10:34;;;;;;;14.32;12.35;;;;;;;;;;1672446;29;21611;-64
2022/06/21 03:11:31;;;;;;;13.18;11.93;;;;;;;;;;1669267;29;23941;-63
2022/06/21 03:12:25;;;;;;;13.70;11.77;;;;;;;;;;1669954;29;21601;-64
2022/06/21 03:13:22;;;;;;;15.30;12.00;;;;;;;;;;1662821;29;21626;-63
2022/06/21 03:14:17;;;;;;;16.50;12.18;;;;;;;;;;1666263;29;21707;-63
2022/06/21 03:15:13;;;;;;;12.68;11.38;;;;;;;;;;1674389;29;21733;-63
2022/06/21 03:16:10;;;;;;;12.80;11.57;;;;;;;;;;1668446;29;21637;-62
2022/06/21 03:17:06;;;;;;;18.17;11.70;;;;;;;;;;1670892;29;21720;-62
2022/06/21 03:18:02;;;;;;;19.50;11.20;;;;;;;;;;1672800;29;22437;-63
2022/06/21 03:18:59;;;;;;;13.68;11.75;;;;;;;;;;1671082;29;21603;-63
2022/06/21 03:19:51;;;;;;;13.02;11.43;;;;;;;;;;1669667;29;22517;-62
2022/06/21 03:20:44;;;;;;;12.43;10.82;;;;;;;;;;1667816;29;22314;-62
2022/06/21 03:21:36;;;;;;;13.30;11.30;;;;;;;;;;1665488;29;21564;-63
2022/06/21 03:22:34;;;;;;;13.75;10.63;;;;;;;;;;1671062;29;22516;-63
2022/06/21 03:23:28;;;;;;;11.25;10.15;;;;;;;;;;1669585;29;21591;-62
2022/06/21 03:24:23;;;;;;;11.73;10.55;;;;;;;;;;1669134;29;21635;-63
2022/06/21 03:25:21;;;;;;;11.65;10.40;;;;;;;;;;1669735;29;21743;-62
2022/06/21 03:26:15;;;;;;;10.52;9.52;;;;;;;;;;1674907;29;21639;-63
2022/06/21 03:27:26;;;;;;;12.57;10.18;;;;;;;;;;1674500;29;21609;-62
2022/06/21 03:28:30;;;;;;;10.43;9.60;;;;;;;;;;1669075;29;21567;-63
2022/06/21 03:29:21;;;;;;;9.77;8.93;;;;;;;;;;1669825;29;21921;-63
2022/06/21 03:30:14;;;;;;;12.43;9.98;;;;;;;;;;1665592;29;21832;-63
2022/06/21 03:31:12;;;;;;;11.10;10.00;;;;;;;;;;1664389;29;21689;-63
2022/06/21 03:32:05;;;;;;;11.43;10.30;;;;;;;;;;1671201;29;21765;-63
2022/06/21 03:32:58;;;;;;;10.63;9.60;;;;;;;;;;1669105;29;22054;-62
2022/06/21 03:33:54;;;;;;;9.52;8.68;;;;;;;;;;1664124;29;21798;-62
2022/06/21 03:34:47;;;;;;;13.57;9.73;;;;;;;;;;1665913;29;21604;-63
2022/06/21 03:35:39;;;;;;;13.95;9.07;;;;;;;;;;1670155;29;21604;-63
2022/06/21 03:36:32;;;;;;;9.77;8.93;;;;;;;;;;1671012;29;21661;-63
2022/06/21 03:37:25;;;;;;;10.30;9.35;;;;;;;;;;1673483;29;21675;-62
2022/06/21 03:38:16;;;;;;;10.63;9.02;;;;;;;;;;1670270;29;21682;-63
2022/06/21 03:39:13;;;;;;;12.32;8.40;;;;;;;;;;1668874;29;21619;-63
2022/06/21 03:42:35;;;;;;;9.00;8.20;;;;;;;;;;1664317;29;22076;-63
2022/06/21 03:43:36;;;;;;;9.93;8.00;;;;;;;;;;1671220;29;21766;-62
2022/06/21 03:44:34;;;;;;;10.20;8.63;;;;;;;;;;1673618;29;21691;-64
2022/06/21 03:45:34;;;;;;;10.13;8.05;;;;;;;;;;1673300;29;21943;-63
2022/06/21 03:46:32;;;;;;;8.00;7.30;;;;;;;;;;1669436;29;21606;-63
2022/06/21 03:47:29;;;;;;;10.70;7.75;;;;;;;;;;1669594;29;21903;-63
2022/06/21 03:48:26;;;;;;;9.63;8.50;;;;;;;;;;1669568;29;22426;-63
2022/06/21 03:49:28;;;;;;;10.95;8.20;;;;;;;;;;1670967;29;22416;-63
2022/06/21 03:50:23;;;;;;;8.80;7.05;;;;;;;;;;1674314;29;21747;-62
2022/06/21 03:51:22;;;;;;;8.80;8.07;;;;;;;;;;1668788;29;21609;-62
2022/06/21 03:52:41;;;;;;;8.65;7.95;;;;;;;;;;1668125;29;22448;-63
2022/06/21 03:53:35;;;;;;;7.75;7.13;;;;;;;;;;1669518;29;22315;-63
2022/06/21 03:54:32;;;;;;;8.02;7.32;;;;;;;;;;1672205;29;21549;-62
2022/06/21 03:55:41;;;;;;;7.93;7.22;;;;;;;;;;1671055;29;21789;-63
2022/06/21 03:56:38;;;;;;;8.00;7.30;;;;;;;;;;1671092;29;21837;-63
2022/06/21 03:57:36;;;;;;;7.50;6.95;;;;;;;;;;1670439;29;21653;-63
2022/06/21 03:58:44;;;;;;;10.27;7.32;;;;;;;;;;1669747;29;22449;-62
2022/06/21 03:59:42;;;;;;;7.53;6.85;;;;;;;;;;1671710;29;21756;-63
2022/06/21 04:00:39;;;;;;;8.32;6.55;;;;;;;;;;1672491;29;21637;-62
2022/06/21 04:01:39;;;;;;;7.63;6.93;;;;;;;;;;1670626;29;21634;-62
2022/06/21 04:02:36;;;;;;;8.57;7.07;;;;;;;;;;1671043;29;21841;-63
2022/06/21 04:03:32;;;;;;;9.75;6.90;;;;;;;;;;1671513;29;21669;-62
2022/06/21 04:04:29;;;;;;;10.30;6.32;;;;;;;;;;1670267;29;22316;-63
2022/06/21 04:05:27;;;;;;;8.25;6.47;;;;;;;;;;1671165;29;22264;-62
2022/06/21 04:06:25;;;;;;;6.53;6.03;;;;;;;;;;1669418;29;21648;-63
2022/06/21 04:07:27;;;;;;;6.78;6.28;;;;;;;;;;1669383;29;22083;-63
2022/06/21 04:08:28;;;;;;;6.95;6.32;;;;;;;;;;1670746;29;21794;-63
2022/06/21 04:09:32;;;;;;;6.90;6.30;;;;;;;;;;1670525;29;21585;-63
2022/06/21 04:10:28;;;;;;;6.80;5.72;;;;;;;;;;1674737;29;21616;-63
2022/06/21 04:11:25;;;;;;;7.47;6.53;;;;;;;;;;1664467;29;21602;-63
2022/06/21 04:12:22;;;;;;;9.40;6.32;;;;;;;;;;1671609;29;21671;-62
2022/06/21 04:13:24;;;;;;;6.68;5.88;;;;;;;;;;1668375;29;22290;-63
2022/06/21 04:14:25;;;;;;;6.55;5.95;;;;;;;;;;1669719;29;22478;-63
2022/06/21 04:15:20;;;;;;;;;;;;;;;;;;1671698;29;21794;-62
2022/06/21 04:16:17;;;;;;;7.15;5.43;;;;;;;;;;1672552;29;21797;-63
2022/06/21 04:17:17;;;;;;;6.07;5.53;;;;;;;;;;1673444;29;21602;-63
2022/06/21 04:18:16;;;;;;;6.63;5.38;;;;;;;;;;1676050;29;21593;-62
2022/06/21 04:19:13;;;;;;;5.97;5.38;;;;;;;;;;1670616;29;21619;-63
2022/06/21 04:20:15;;;;;;;5.80;5.40;;;;;;;;;;1671788;29;21783;-63
2022/06/21 04:21:11;;;;;;;12.07;5.25;;;;;;;;;;1672949;29;21653;-63
2022/06/21 04:22:11;;;;;;;5.68;5.18;;;;;;;;;;1671715;29;21885;-63
2022/06/21 04:23:11;;;;;;;5.88;5.38;;;;;;;;;;1669949;29;21667;-63
2022/06/21 04:24:12;;;;;;;5.60;5.07;;;;;;;;;;1668317;29;21643;-63
2022/06/21 04:25:12;;;;;;;5.43;4.93;;;;;;;;;;1672369;29;21925;-63
2022/06/21 04:26:09;;;;;;;8.60;5.47;;;;;;;;;;1669214;29;22278;-63
2022/06/21 04:27:09;;;;;;;5.35;4.95;;;;;;;;;;1671976;29;21594;-63
2022/06/21 04:28:06;;;;;;;5.65;5.25;;;;;;;;;;1670422;29;21595;-62
2022/06/21 04:29:07;;;;;;;5.78;5.35;;;;;;;;;;1670485;29;21605;-63
2022/06/21 04:30:05;;;;;;;5.38;4.97;;;;;;;;;;1669256;29;21902;-63
2022/06/21 04:31:05;;;;;;;5.05;4.65;;;;;;;;;;1677782;29;21546;-62
2022/06/21 04:32:03;;;;;;;5.05;4.65;;;;;;;;;;1673656;29;22462;-63
2022/06/21 04:33:02;;;;;;;8.65;4.68;;;;;;;;;;1663383;29;22637;-62
2022/06/21 04:33:58;;;;;;;6.22;5.25;;;;;;;;;;1664790;29;21757;-64
2022/06/21 04:34:59;;;;;;;5.80;5.30;;;;;;;;;;1670096;29;21768;-62
2022/06/21 04:35:55;;;;;;;8.50;4.90;;;;;;;;;;1667571;29;21618;-63
2022/06/21 04:36:54;;;;;;;5.47;4.97;;;;;;;;;;1673124;29;22365;-63
2022/06/21 04:37:50;;;;;;;5.13;4.65;;;;;;;;;;1670545;29;21664;-63
2022/06/21 04:38:47;;;;;;;5.15;4.53;;;;;;;;;;1670287;29;21670;-63
2022/06/21 04:39:57;;;;;;;4.82;4.53;;;;;;;;;;1670369;29;21840;-63
2022/06/21 04:40:56;;;;;;;5.47;4.53;;;;;;;;;;1673268;29;21761;-63
2022/06/21 04:41:53;;;;;;;4.95;4.47;;;;;;;;;;1670490;29;22242;-62
2022/06/21 04:42:53;;;;;;;5.07;4.63;;;;;;;;;;1672318;29;22096;-63
2022/06/21 04:43:48;;;;;;;;;;;;;;;;;;1671729;29;21677;-63
2022/06/21 04:44:48;;;;;;;5.00;4.47;;;;;;;;;;1671904;29;21710;-63
2022/06/21 04:45:46;;;;;;;4.72;4.32;;;;;;;;;;1674480;29;21811;-62
2022/06/21 04:46:42;;;;;;;4.85;4.47;;;;;;;;;;1668737;29;21763;-63
2022/06/21 04:47:40;;;;;;;5.05;4.55;;;;;;;;;;1673819;29;22251;-63
2022/06/21 04:48:38;;;;;;;5.00;4.45;;;;;;;;;;1660423;29;21584;-62
2022/06/21 04:49:37;;;;;;;4.30;4.00;;;;;;;;;;1657280;29;22385;-63
2022/06/21 04:50:34;;;;;;;3.97;3.67;;;;;;;;;;1670465;29;21618;-63
2022/06/21 04:51:32;;;;;;;7.15;4.20;;;;;;;;;;1674854;29;22515;-63
2022/06/21 04:52:30;;;;;;;4.57;4.28;;;;;;;;;;1669069;29;21603;-63
2022/06/21 04:53:31;;;;;;;4.20;3.85;;;;;;;;;;1671504;29;22039;-63
2022/06/21 04:54:26;;;;;;;4.40;4.10;;;;;;;;;;1668221;29;22554;-63
2022/06/21 04:55:21;;;;;;;6.28;4.43;;;;;;;;;;1666183;29;22053;-63
2022/06/21 04:56:26;;;;;;;3.90;3.60;;;;;;;;;;1673285;29;21627;-63
2022/06/21 04:57:20;;;;;;;4.05;3.75;;;;;;;;;;1670564;29;21897;-64
2022/06/21 04:58:13;;;;;;;3.95;3.65;;;;;;;;;;1668550;29;22242;-63
2022/06/21 04:59:21;;;;;;;3.70;3.40;;;;;;;;;;1663841;29;21619;-63
2022/06/21 05:00:17;;;;;;;4.13;3.83;;;;;;;;;;1665364;29;21893;-63
2022/06/21 05:02:24;;;;;;;3.83;3.53;;;;;;;;;;1670054;29;21924;-63
2022/06/21 05:03:29;;;;;;;4.72;4.10;;;;;;;;;;1671282;29;21661;-63
2022/06/21 05:04:26;;;;;;;5.20;3.60;;;;;;;;;;1664594;29;21773;-63
2022/06/21 05:05:21;;;;;;;3.55;3.25;;;;;;;;;;1664641;29;22049;-63
2022/06/21 05:06:15;;;;;;;4.07;3.53;;;;;;;;;;1669787;29;21630;-63
2022/06/21 05:07:12;;;;;;;3.75;3.42;;;;;;;;;;1671702;29;21601;-63
2022/06/21 05:08:11;;;;;;;4.07;3.67;;;;;;;;;;1664202;29;21601;-63
2022/06/21 05:09:02;;;;;;;4.22;3.50;;;;;;;;;;1670595;29;21599;-64
2022/06/21 05:09:56;;;;;;;3.63;3.42;;;;;;;;;;1676524;29;21654;-64
2022/06/21 05:10:50;;;;;;;3.83;3.53;;;;;;;;;;1672192;29;21590;-64
2022/06/21 05:11:43;;;;;;;5.40;3.47;;;;;;;;;;1672081;29;21620;-64
2022/06/21 05:12:40;;;;;;;3.30;3.10;;;;;;;;;;1675328;29;21948;-64
2022/06/21 05:13:38;;;;;;;5.18;3.17;;;;;;;;;;1675752;29;21661;-64
2022/06/21 05:14:36;;;;;;;4.35;3.00;;;;;;;;;;1669160;29;21603;-63
2022/06/21 05:15:33;;;;;;;3.42;3.13;;;;;;;;;;1668989;29;22522;-64
2022/06/21 05:16:34;;;;;;;4.45;3.30;;;;;;;;;;1671389;29;22198;-63
2022/06/21 05:17:27;;;;;;;3.58;3.28;;;;;;;;;;1672008;29;21933;-63
2022/06/21 05:18:25;;;;;;;3.75;3.22;;;;;;;;;;1671859;29;22290;-63
2022/06/21 05:19:21;;;;;;;3.67;3.38;;;;;;;;;;1670121;29;22121;-64
2022/06/21 05:20:19;;;;;;;6.03;3.17;;;;;;;;;;1674423;29;21654;-63
2022/06/21 05:21:16;;;;;;;3.40;3.10;;;;;;;;;;1673499;29;21570;-63
2022/06/21 05:22:17;;;;;;;3.83;3.53;;;;;;;;;;1669270;29;22435;-63
2022/06/21 05:23:12;;;;;;;2.90;2.70;;;;;;;;;;1668862;29;22240;-64
2022/06/21 05:24:05;;;;;;;3.47;3.20;;;;;;;;;;1671109;29;21607;-63
2022/06/21 05:24:59;;;;;;;3.42;3.22;;;;;;;;;;1666524;29;21640;-63
2022/06/21 05:25:51;;;;;;;4.10;2.80;;;;;;;;;;1669775;29;21627;-64
2022/06/21 05:26:49;;;;;;;3.10;2.85;;;;;;;;;;1669348;29;21641;-63
2022/06/21 05:27:46;;;;;;;2.80;2.60;;;;;;;;;;1670777;29;22513;-64
2022/06/21 05:28:45;;;;;;;3.22;2.92;;;;;;;;;;1671814;29;22554;-64
2022/06/21 05:29:44;;;;;;;2.92;2.72;;;;;;;;;;1671149;29;21931;-63
2022/06/21 05:30:45;;;;;;;4.57;2.72;;;;;;;;;;1667011;29;21642;-64
2022/06/21 05:31:40;;;;;;;6.68;3.15;;;;;;;;;;1667448;29;21629;-63
2022/06/21 05:32:38;;;;;;;7.18;2.58;;;;;;;;;;1670169;29;22047;-64
2022/06/21 05:33:35;;;;;;;2.95;2.75;;;;;;;;;;1670195;29;22315;-63
2022/06/21 05:34:32;;;;;;;2.30;2.10;;;;;;;;;;1674805;29;22298;-63
2022/06/21 05:35:28;;;;;;;3.05;2.80;;;;;;;;;;1672172;29;22686;-64
2022/06/21 05:36:26;;;;;;;2.92;2.72;;;;;;;;;;1670073;29;21659;-64
2022/06/21 05:37:28;;;;;;;2.50;2.40;;;;;;;;;;1672387;29;22484;-63
2022/06/21 05:38:24;;;;;;;2.60;2.40;;;;;;;;;;1670887;29;21722;-64
2022/06/21 05:39:21;;;;;;;3.55;2.72;;;;;;;;;;1670041;29;21843;-63